sensor_id;sensor_type;location;lat;lon;timestamp;P1;durP1;ratioP1;P2;durP2;ratioP2
13795;SDS011;40911;51.552;9.874;2022-07-26T00:03:23;3.80;;;2.10;;
13795;SDS011;40911;51.552;9.874;2022-07-26T00:05:44;9.98;;;2.50;;
13795;SDS011;40911;51.552;9.874;2022-07-26T00:08:06;6.25;;;2.30;;
13795;SDS011;40911;51.552;9.874;2022-07-26T00:10:31;6.22;;;2.40;;
13795;SDS011;40911;51.552;9.874;2022-07-26T00:15:14;6.80;;;2.00;;
13795;SDS011;40911;51.552;9.874;2022-07-26T00:17:36;6.20;;;2.40;;
13795;SDS011;40911;51.552;9.874;2022-07-26T00:19:59;6.50;;;2.10;;
13795;SDS011;40911;51.552;9.874;2022-07-26T00:22:21;4.57;;;1.85;;
13795;SDS011;40911;51.552;9.874;2022-07-26T00:24:54;4.88;;;2.28;;
13795;SDS011;40911;51.552;9.874;2022-07-26T00:27:16;7.55;;;2.22;;
13795;SDS011;40911;51.552;9.874;2022-07-26T00:31:59;7.68;;;1.98;;
13795;SDS011;40911;51.552;9.874;2022-07-26T00:34:21;3.35;;;1.90;;
13795;SDS011;40911;51.552;9.874;2022-07-26T00:39:05;6.22;;;1.98;;
13795;SDS011;40911;51.552;9.874;2022-07-26T00:43:52;4.47;;;1.95;;
13795;SDS011;40911;51.552;9.874;2022-07-26T00:46:15;7.78;;;2.00;;
13795;SDS011;40911;51.552;9.874;2022-07-26T00:48:37;8.82;;;2.38;;
13795;SDS011;40911;51.552;9.874;2022-07-26T00:53:21;5.32;;;2.13;;
13795;SDS011;40911;51.552;9.874;2022-07-26T00:55:43;4.93;;;2.20;;
13795;SDS011;40911;51.552;9.874;2022-07-26T01:00:26;4.47;;;2.20;;
13795;SDS011;40911;51.552;9.874;2022-07-26T01:02:49;6.72;;;2.25;;
13795;SDS011;40911;51.552;9.874;2022-07-26T01:05:11;7.30;;;2.40;;
13795;SDS011;40911;51.552;9.874;2022-07-26T01:07:32;8.93;;;2.38;;
13795;SDS011;40911;51.552;9.874;2022-07-26T01:09:56;7.78;;;2.15;;
13795;SDS011;40911;51.552;9.874;2022-07-26T01:12:18;5.10;;;2.38;;
13795;SDS011;40911;51.552;9.874;2022-07-26T01:17:02;5.65;;;1.98;;
13795;SDS011;40911;51.552;9.874;2022-07-26T01:19:24;6.68;;;2.03;;
13795;SDS011;40911;51.552;9.874;2022-07-26T01:24:08;4.22;;;1.77;;
13795;SDS011;40911;51.552;9.874;2022-07-26T01:26:30;5.47;;;2.00;;
13795;SDS011;40911;51.552;9.874;2022-07-26T01:28:52;4.25;;;1.80;;
13795;SDS011;40911;51.552;9.874;2022-07-26T01:33:36;9.00;;;2.00;;
13795;SDS011;40911;51.552;9.874;2022-07-26T01:35:57;6.82;;;1.90;;
13795;SDS011;40911;51.552;9.874;2022-07-26T01:38:21;5.43;;;2.35;;
13795;SDS011;40911;51.552;9.874;2022-07-26T01:40:42;5.15;;;2.28;;
13795;SDS011;40911;51.552;9.874;2022-07-26T01:43:04;6.03;;;1.83;;
13795;SDS011;40911;51.552;9.874;2022-07-26T01:47:47;6.80;;;1.77;;
13795;SDS011;40911;51.552;9.874;2022-07-26T01:50:10;5.07;;;1.70;;
13795;SDS011;40911;51.552;9.874;2022-07-26T01:54:55;7.97;;;1.80;;
13795;SDS011;40911;51.552;9.874;2022-07-26T01:57:17;7.82;;;1.80;;
13795;SDS011;40911;51.552;9.874;2022-07-26T01:59:39;7.25;;;1.80;;
13795;SDS011;40911;51.552;9.874;2022-07-26T02:02:01;3.55;;;1.50;;
13795;SDS011;40911;51.552;9.874;2022-07-26T02:04:22;7.20;;;1.65;;
13795;SDS011;40911;51.552;9.874;2022-07-26T02:07:01;6.93;;;1.75;;
13795;SDS011;40911;51.552;9.874;2022-07-26T02:09:23;4.80;;;1.60;;
13795;SDS011;40911;51.552;9.874;2022-07-26T02:11:46;3.40;;;1.65;;
13795;SDS011;40911;51.552;9.874;2022-07-26T02:14:08;4.38;;;1.55;;
13795;SDS011;40911;51.552;9.874;2022-07-26T02:16:30;4.28;;;1.77;;
13795;SDS011;40911;51.552;9.874;2022-07-26T02:18:52;4.35;;;1.88;;
13795;SDS011;40911;51.552;9.874;2022-07-26T02:23:35;9.77;;;1.88;;
13795;SDS011;40911;51.552;9.874;2022-07-26T02:25:57;4.20;;;1.60;;
13795;SDS011;40911;51.552;9.874;2022-07-26T02:28:21;4.03;;;1.67;;
13795;SDS011;40911;51.552;9.874;2022-07-26T02:30:43;2.42;;;1.48;;
13795;SDS011;40911;51.552;9.874;2022-07-26T02:33:06;5.80;;;2.00;;
13795;SDS011;40911;51.552;9.874;2022-07-26T02:35:27;2.40;;;1.50;;
13795;SDS011;40911;51.552;9.874;2022-07-26T02:37:50;5.10;;;1.52;;
13795;SDS011;40911;51.552;9.874;2022-07-26T02:42:34;4.47;;;1.50;;
13795;SDS011;40911;51.552;9.874;2022-07-26T02:44:57;4.30;;;1.48;;
13795;SDS011;40911;51.552;9.874;2022-07-26T02:47:18;7.10;;;1.70;;
13795;SDS011;40911;51.552;9.874;2022-07-26T02:49:40;6.90;;;1.80;;
13795;SDS011;40911;51.552;9.874;2022-07-26T02:54:24;5.75;;;1.40;;
13795;SDS011;40911;51.552;9.874;2022-07-26T02:59:07;4.40;;;1.45;;
13795;SDS011;40911;51.552;9.874;2022-07-26T03:03:54;2.45;;;1.40;;
13795;SDS011;40911;51.552;9.874;2022-07-26T03:08:37;4.07;;;1.42;;
13795;SDS011;40911;51.552;9.874;2022-07-26T03:10:59;9.35;;;1.50;;
13795;SDS011;40911;51.552;9.874;2022-07-26T03:19:24;5.00;;;1.40;;
13795;SDS011;40911;51.552;9.874;2022-07-26T03:21:46;1.98;;;1.33;;
13795;SDS011;40911;51.552;9.874;2022-07-26T03:26:29;3.22;;;1.30;;
13795;SDS011;40911;51.552;9.874;2022-07-26T03:31:12;5.10;;;1.38;;
13795;SDS011;40911;51.552;9.874;2022-07-26T03:33:34;3.92;;;1.58;;
13795;SDS011;40911;51.552;9.874;2022-07-26T03:38:19;2.88;;;1.30;;
13795;SDS011;40911;51.552;9.874;2022-07-26T03:43:02;5.38;;;1.52;;
13795;SDS011;40911;51.552;9.874;2022-07-26T03:45:24;4.82;;;1.35;;
13795;SDS011;40911;51.552;9.874;2022-07-26T03:50:07;5.60;;;1.80;;
13795;SDS011;40911;51.552;9.874;2022-07-26T03:52:31;4.93;;;1.42;;
13795;SDS011;40911;51.552;9.874;2022-07-26T03:54:53;5.97;;;1.83;;
13795;SDS011;40911;51.552;9.874;2022-07-26T03:57:14;4.82;;;1.52;;
13795;SDS011;40911;51.552;9.874;2022-07-26T03:59:35;2.83;;;1.73;;
13795;SDS011;40911;51.552;9.874;2022-07-26T04:01:57;2.92;;;1.63;;
13795;SDS011;40911;51.552;9.874;2022-07-26T04:06:40;6.72;;;1.80;;
13795;SDS011;40911;51.552;9.874;2022-07-26T04:09:04;5.10;;;1.95;;
13795;SDS011;40911;51.552;9.874;2022-07-26T04:11:26;5.43;;;1.52;;
13795;SDS011;40911;51.552;9.874;2022-07-26T04:16:09;4.97;;;1.75;;
13795;SDS011;40911;51.552;9.874;2022-07-26T04:18:31;6.53;;;1.70;;
13795;SDS011;40911;51.552;9.874;2022-07-26T04:23:14;7.30;;;2.33;;
13795;SDS011;40911;51.552;9.874;2022-07-26T04:25:37;5.82;;;1.70;;
13795;SDS011;40911;51.552;9.874;2022-07-26T04:27:59;4.90;;;2.00;;
13795;SDS011;40911;51.552;9.874;2022-07-26T04:30:21;7.28;;;2.40;;
13795;SDS011;40911;51.552;9.874;2022-07-26T04:32:43;6.40;;;2.20;;
13795;SDS011;40911;51.552;9.874;2022-07-26T04:35:05;6.68;;;2.42;;
13795;SDS011;40911;51.552;9.874;2022-07-26T04:37:27;4.97;;;2.15;;
13795;SDS011;40911;51.552;9.874;2022-07-26T04:39:51;6.22;;;2.17;;
13795;SDS011;40911;51.552;9.874;2022-07-26T04:44:36;4.50;;;1.98;;
13795;SDS011;40911;51.552;9.874;2022-07-26T04:49:19;5.07;;;2.55;;
13795;SDS011;40911;51.552;9.874;2022-07-26T04:51:41;4.85;;;2.20;;
13795;SDS011;40911;51.552;9.874;2022-07-26T04:56:24;8.38;;;2.90;;
13795;SDS011;40911;51.552;9.874;2022-07-26T05:01:08;4.70;;;2.30;;
13795;SDS011;40911;51.552;9.874;2022-07-26T05:05:52;4.07;;;2.10;;
13795;SDS011;40911;51.552;9.874;2022-07-26T05:08:13;4.43;;;1.88;;
13795;SDS011;40911;51.552;9.874;2022-07-26T05:10:36;6.60;;;2.30;;
13795;SDS011;40911;51.552;9.874;2022-07-26T05:12:58;5.95;;;2.60;;
13795;SDS011;40911;51.552;9.874;2022-07-26T05:17:42;7.28;;;2.40;;
13795;SDS011;40911;51.552;9.874;2022-07-26T05:20:05;5.63;;;2.30;;
13795;SDS011;40911;51.552;9.874;2022-07-26T05:22:28;6.68;;;2.67;;
13795;SDS011;40911;51.552;9.874;2022-07-26T05:24:49;7.00;;;2.35;;
13795;SDS011;40911;51.552;9.874;2022-07-26T05:29:32;7.95;;;2.45;;
13795;SDS011;40911;51.552;9.874;2022-07-26T05:31:55;7.22;;;2.42;;
13795;SDS011;40911;51.552;9.874;2022-07-26T05:34:17;5.55;;;2.50;;
13795;SDS011;40911;51.552;9.874;2022-07-26T05:39:00;5.50;;;2.63;;
13795;SDS011;40911;51.552;9.874;2022-07-26T05:43:43;9.48;;;3.00;;
13795;SDS011;40911;51.552;9.874;2022-07-26T05:46:05;6.25;;;2.63;;
13795;SDS011;40911;51.552;9.874;2022-07-26T05:48:28;4.07;;;2.70;;
13795;SDS011;40911;51.552;9.874;2022-07-26T05:50:50;6.82;;;2.83;;
13795;SDS011;40911;51.552;9.874;2022-07-26T05:53:12;4.57;;;2.33;;
13795;SDS011;40911;51.552;9.874;2022-07-26T05:57:55;7.93;;;3.28;;
13795;SDS011;40911;51.552;9.874;2022-07-26T06:00:17;3.90;;;2.33;;
13795;SDS011;40911;51.552;9.874;2022-07-26T06:02:39;4.90;;;2.90;;
13795;SDS011;40911;51.552;9.874;2022-07-26T06:05:03;5.60;;;3.28;;
13795;SDS011;40911;51.552;9.874;2022-07-26T06:07:25;4.75;;;3.25;;
13795;SDS011;40911;51.552;9.874;2022-07-26T06:09:47;7.47;;;3.38;;
13795;SDS011;40911;51.552;9.874;2022-07-26T06:12:08;7.75;;;3.72;;
13795;SDS011;40911;51.552;9.874;2022-07-26T06:14:30;6.57;;;3.55;;
13795;SDS011;40911;51.552;9.874;2022-07-26T06:16:52;5.28;;;3.90;;
13795;SDS011;40911;51.552;9.874;2022-07-26T06:19:14;7.72;;;4.25;;
13795;SDS011;40911;51.552;9.874;2022-07-26T06:21:37;7.55;;;3.97;;
13795;SDS011;40911;51.552;9.874;2022-07-26T06:23:59;4.97;;;3.67;;
13795;SDS011;40911;51.552;9.874;2022-07-26T06:26:21;7.60;;;4.30;;
13795;SDS011;40911;51.552;9.874;2022-07-26T06:28:43;11.25;;;3.80;;
13795;SDS011;40911;51.552;9.874;2022-07-26T06:33:26;7.00;;;4.22;;
13795;SDS011;40911;51.552;9.874;2022-07-26T06:38:10;9.45;;;4.50;;
13795;SDS011;40911;51.552;9.874;2022-07-26T06:40:32;8.77;;;4.28;;
13795;SDS011;40911;51.552;9.874;2022-07-26T06:42:54;6.65;;;4.78;;
13795;SDS011;40911;51.552;9.874;2022-07-26T06:45:15;7.43;;;4.72;;
13795;SDS011;40911;51.552;9.874;2022-07-26T06:47:37;7.50;;;4.00;;
13795;SDS011;40911;51.552;9.874;2022-07-26T06:49:59;7.30;;;4.40;;
13795;SDS011;40911;51.552;9.874;2022-07-26T06:54:44;7.28;;;4.60;;
13795;SDS011;40911;51.552;9.874;2022-07-26T06:57:05;8.35;;;4.97;;
13795;SDS011;40911;51.552;9.874;2022-07-26T06:59:27;8.57;;;4.95;;
13795;SDS011;40911;51.552;9.874;2022-07-26T07:04:10;6.47;;;4.40;;
13795;SDS011;40911;51.552;9.874;2022-07-26T07:06:32;10.35;;;4.97;;
13795;SDS011;40911;51.552;9.874;2022-07-26T07:11:16;5.20;;;4.35;;
13795;SDS011;40911;51.552;9.874;2022-07-26T07:13:38;8.82;;;5.10;;
13795;SDS011;40911;51.552;9.874;2022-07-26T07:15:59;8.27;;;5.13;;
13795;SDS011;40911;51.552;9.874;2022-07-26T07:20:43;5.65;;;4.68;;
13795;SDS011;40911;51.552;9.874;2022-07-26T07:23:05;9.02;;;4.95;;
13795;SDS011;40911;51.552;9.874;2022-07-26T07:25:27;6.97;;;4.30;;
13795;SDS011;40911;51.552;9.874;2022-07-26T07:27:50;6.93;;;4.35;;
13795;SDS011;40911;51.552;9.874;2022-07-26T07:30:12;7.13;;;4.35;;
13795;SDS011;40911;51.552;9.874;2022-07-26T07:32:36;5.85;;;4.22;;
13795;SDS011;40911;51.552;9.874;2022-07-26T07:34:57;9.55;;;4.53;;
13795;SDS011;40911;51.552;9.874;2022-07-26T07:37:19;7.38;;;4.63;;
13795;SDS011;40911;51.552;9.874;2022-07-26T07:42:02;6.07;;;4.20;;
13795;SDS011;40911;51.552;9.874;2022-07-26T07:44:25;8.30;;;4.78;;
13795;SDS011;40911;51.552;9.874;2022-07-26T07:46:47;7.30;;;4.93;;
13795;SDS011;40911;51.552;9.874;2022-07-26T07:49:09;8.23;;;5.40;;
13795;SDS011;40911;51.552;9.874;2022-07-26T07:51:31;7.78;;;4.93;;
13795;SDS011;40911;51.552;9.874;2022-07-26T07:53:53;11.15;;;5.20;;
13795;SDS011;40911;51.552;9.874;2022-07-26T07:56:15;9.77;;;4.90;;
13795;SDS011;40911;51.552;9.874;2022-07-26T07:58:37;8.85;;;4.80;;
13795;SDS011;40911;51.552;9.874;2022-07-26T08:01:00;9.02;;;5.00;;
13795;SDS011;40911;51.552;9.874;2022-07-26T08:03:22;7.90;;;4.85;;
13795;SDS011;40911;51.552;9.874;2022-07-26T08:08:07;7.43;;;5.53;;
13795;SDS011;40911;51.552;9.874;2022-07-26T08:10:29;7.93;;;4.05;;
13795;SDS011;40911;51.552;9.874;2022-07-26T08:12:50;7.78;;;4.45;;
13795;SDS011;40911;51.552;9.874;2022-07-26T08:15:12;6.72;;;4.57;;
13795;SDS011;40911;51.552;9.874;2022-07-26T08:17:35;8.68;;;4.75;;
13795;SDS011;40911;51.552;9.874;2022-07-26T08:19:57;7.00;;;4.28;;
13795;SDS011;40911;51.552;9.874;2022-07-26T08:24:40;7.10;;;4.70;;
13795;SDS011;40911;51.552;9.874;2022-07-26T08:27:04;9.57;;;4.70;;
13795;SDS011;40911;51.552;9.874;2022-07-26T08:29:26;7.30;;;4.50;;
13795;SDS011;40911;51.552;9.874;2022-07-26T08:31:48;7.82;;;5.35;;
13795;SDS011;40911;51.552;9.874;2022-07-26T08:34:13;6.68;;;5.25;;
13795;SDS011;40911;51.552;9.874;2022-07-26T08:36:36;6.50;;;5.72;;
13795;SDS011;40911;51.552;9.874;2022-07-26T08:38:58;9.35;;;5.38;;
13795;SDS011;40911;51.552;9.874;2022-07-26T08:41:20;11.20;;;5.72;;
13795;SDS011;40911;51.552;9.874;2022-07-26T08:43:42;10.70;;;5.20;;
13795;SDS011;40911;51.552;9.874;2022-07-26T08:46:04;8.57;;;5.10;;
13795;SDS011;40911;51.552;9.874;2022-07-26T08:48:26;7.10;;;5.05;;
13795;SDS011;40911;51.552;9.874;2022-07-26T08:50:49;6.00;;;5.05;;
13795;SDS011;40911;51.552;9.874;2022-07-26T08:53:11;6.68;;;4.00;;
13795;SDS011;40911;51.552;9.874;2022-07-26T08:55:33;5.75;;;4.25;;
13795;SDS011;40911;51.552;9.874;2022-07-26T08:57:55;6.03;;;3.97;;
13795;SDS011;40911;51.552;9.874;2022-07-26T09:00:18;11.38;;;3.97;;
13795;SDS011;40911;51.552;9.874;2022-07-26T09:02:41;5.07;;;3.65;;
13795;SDS011;40911;51.552;9.874;2022-07-26T09:05:03;6.50;;;3.35;;
13795;SDS011;40911;51.552;9.874;2022-07-26T09:07:27;5.43;;;3.50;;
13795;SDS011;40911;51.552;9.874;2022-07-26T09:09:57;5.53;;;3.30;;
13795;SDS011;40911;51.552;9.874;2022-07-26T09:12:20;7.90;;;3.53;;
13795;SDS011;40911;51.552;9.874;2022-07-26T09:14:43;5.50;;;3.30;;
13795;SDS011;40911;51.552;9.874;2022-07-26T09:17:06;10.10;;;3.25;;
13795;SDS011;40911;51.552;9.874;2022-07-26T09:19:28;3.70;;;3.00;;
13795;SDS011;40911;51.552;9.874;2022-07-26T09:21:50;5.10;;;2.80;;
13795;SDS011;40911;51.552;9.874;2022-07-26T09:24:13;6.50;;;2.80;;
13795;SDS011;40911;51.552;9.874;2022-07-26T09:26:56;2.57;;;2.17;;
13795;SDS011;40911;51.552;9.874;2022-07-26T09:29:18;5.05;;;2.42;;
13795;SDS011;40911;51.552;9.874;2022-07-26T09:31:40;4.18;;;2.50;;
13795;SDS011;40911;51.552;9.874;2022-07-26T09:34:03;3.33;;;2.38;;
13795;SDS011;40911;51.552;9.874;2022-07-26T09:36:26;4.10;;;2.30;;
13795;SDS011;40911;51.552;9.874;2022-07-26T09:38:48;4.80;;;2.50;;
13795;SDS011;40911;51.552;9.874;2022-07-26T09:41:19;6.03;;;2.20;;
13795;SDS011;40911;51.552;9.874;2022-07-26T09:43:42;3.20;;;2.17;;
13795;SDS011;40911;51.552;9.874;2022-07-26T09:46:04;3.17;;;2.22;;
13795;SDS011;40911;51.552;9.874;2022-07-26T09:48:26;3.65;;;2.17;;
13795;SDS011;40911;51.552;9.874;2022-07-26T09:50:49;2.63;;;2.22;;
13795;SDS011;40911;51.552;9.874;2022-07-26T09:53:11;4.03;;;2.08;;
13795;SDS011;40911;51.552;9.874;2022-07-26T09:55:33;4.05;;;2.17;;
13795;SDS011;40911;51.552;9.874;2022-07-26T09:57:57;3.42;;;1.98;;
13795;SDS011;40911;51.552;9.874;2022-07-26T10:00:22;2.65;;;1.98;;
13795;SDS011;40911;51.552;9.874;2022-07-26T10:02:44;3.78;;;2.08;;
13795;SDS011;40911;51.552;9.874;2022-07-26T10:05:06;2.90;;;1.88;;
13795;SDS011;40911;51.552;9.874;2022-07-26T10:07:28;2.67;;;1.95;;
13795;SDS011;40911;51.552;9.874;2022-07-26T10:09:51;2.55;;;1.90;;
13795;SDS011;40911;51.552;9.874;2022-07-26T10:12:19;2.88;;;1.92;;
13795;SDS011;40911;51.552;9.874;2022-07-26T10:14:45;2.33;;;1.63;;
13795;SDS011;40911;51.552;9.874;2022-07-26T10:20:06;3.50;;;1.90;;
13795;SDS011;40911;51.552;9.874;2022-07-26T10:22:29;4.53;;;2.03;;
13795;SDS011;40911;51.552;9.874;2022-07-26T10:24:53;3.15;;;1.73;;
13795;SDS011;40911;51.552;9.874;2022-07-26T10:32:55;2.60;;;1.90;;
13795;SDS011;40911;51.552;9.874;2022-07-26T10:35:28;2.90;;;1.92;;
13795;SDS011;40911;51.552;9.874;2022-07-26T10:37:56;3.88;;;1.92;;
13795;SDS011;40911;51.552;9.874;2022-07-26T10:40:19;2.40;;;2.00;;
13795;SDS011;40911;51.552;9.874;2022-07-26T10:42:44;2.60;;;1.88;;
13795;SDS011;40911;51.552;9.874;2022-07-26T10:45:14;2.03;;;1.58;;
13795;SDS011;40911;51.552;9.874;2022-07-26T10:47:39;2.40;;;1.70;;
13795;SDS011;40911;51.552;9.874;2022-07-26T10:50:31;3.10;;;1.80;;
13795;SDS011;40911;51.552;9.874;2022-07-26T10:52:56;5.35;;;1.85;;
13795;SDS011;40911;51.552;9.874;2022-07-26T10:55:18;2.17;;;1.73;;
13795;SDS011;40911;51.552;9.874;2022-07-26T10:57:40;2.38;;;1.70;;
13795;SDS011;40911;51.552;9.874;2022-07-26T11:00:21;4.00;;;1.80;;
13795;SDS011;40911;51.552;9.874;2022-07-26T11:02:48;2.03;;;1.60;;
13795;SDS011;40911;51.552;9.874;2022-07-26T11:05:13;3.08;;;1.77;;
13795;SDS011;40911;51.552;9.874;2022-07-26T11:07:42;3.67;;;1.80;;
13795;SDS011;40911;51.552;9.874;2022-07-26T11:10:13;3.17;;;1.52;;
13795;SDS011;40911;51.552;9.874;2022-07-26T11:12:35;3.17;;;1.70;;
13795;SDS011;40911;51.552;9.874;2022-07-26T11:14:57;2.28;;;2.00;;
13795;SDS011;40911;51.552;9.874;2022-07-26T11:17:22;2.88;;;2.00;;
13795;SDS011;40911;51.552;9.874;2022-07-26T11:19:46;4.82;;;1.67;;
13795;SDS011;40911;51.552;9.874;2022-07-26T11:22:07;4.28;;;1.83;;
13795;SDS011;40911;51.552;9.874;2022-07-26T11:24:29;3.25;;;2.03;;
13795;SDS011;40911;51.552;9.874;2022-07-26T11:26:51;2.53;;;2.00;;
13795;SDS011;40911;51.552;9.874;2022-07-26T11:29:13;4.40;;;2.17;;
13795;SDS011;40911;51.552;9.874;2022-07-26T11:31:36;3.97;;;1.88;;
13795;SDS011;40911;51.552;9.874;2022-07-26T11:33:58;2.15;;;1.80;;
13795;SDS011;40911;51.552;9.874;2022-07-26T11:36:31;2.53;;;2.08;;
13795;SDS011;40911;51.552;9.874;2022-07-26T11:38:56;2.70;;;1.90;;
13795;SDS011;40911;51.552;9.874;2022-07-26T11:41:18;3.05;;;1.83;;
13795;SDS011;40911;51.552;9.874;2022-07-26T11:43:41;2.85;;;2.00;;
13795;SDS011;40911;51.552;9.874;2022-07-26T11:46:03;3.25;;;2.40;;
13795;SDS011;40911;51.552;9.874;2022-07-26T11:48:25;3.38;;;2.20;;
13795;SDS011;40911;51.552;9.874;2022-07-26T11:50:47;3.72;;;2.10;;
13795;SDS011;40911;51.552;9.874;2022-07-26T11:53:20;3.97;;;2.08;;
13795;SDS011;40911;51.552;9.874;2022-07-26T11:55:42;3.45;;;2.30;;
13795;SDS011;40911;51.552;9.874;2022-07-26T11:58:04;3.00;;;2.15;;
13795;SDS011;40911;51.552;9.874;2022-07-26T12:00:26;4.88;;;2.30;;
13795;SDS011;40911;51.552;9.874;2022-07-26T12:02:48;2.65;;;2.10;;
13795;SDS011;40911;51.552;9.874;2022-07-26T12:05:13;3.45;;;2.30;;
13795;SDS011;40911;51.552;9.874;2022-07-26T12:07:36;6.07;;;2.20;;
13795;SDS011;40911;51.552;9.874;2022-07-26T12:09:59;3.47;;;2.60;;
13795;SDS011;40911;51.552;9.874;2022-07-26T12:12:22;5.07;;;2.50;;
13795;SDS011;40911;51.552;9.874;2022-07-26T12:14:54;6.00;;;2.67;;
13795;SDS011;40911;51.552;9.874;2022-07-26T12:17:17;3.13;;;2.33;;
13795;SDS011;40911;51.552;9.874;2022-07-26T12:19:40;3.35;;;2.22;;
13795;SDS011;40911;51.552;9.874;2022-07-26T12:22:06;4.20;;;2.70;;
13795;SDS011;40911;51.552;9.874;2022-07-26T12:24:34;3.08;;;2.75;;
13795;SDS011;40911;51.552;9.874;2022-07-26T12:27:09;5.38;;;2.80;;
13795;SDS011;40911;51.552;9.874;2022-07-26T12:29:32;3.42;;;2.70;;
13795;SDS011;40911;51.552;9.874;2022-07-26T12:32:05;4.38;;;1.98;;
13795;SDS011;40911;51.552;9.874;2022-07-26T12:34:28;2.47;;;1.10;;
13795;SDS011;40911;51.552;9.874;2022-07-26T12:36:50;3.15;;;1.17;;
13795;SDS011;40911;51.552;9.874;2022-07-26T12:39:18;2.38;;;1.10;;
13795;SDS011;40911;51.552;9.874;2022-07-26T12:41:40;2.15;;;1.60;;
13795;SDS011;40911;51.552;9.874;2022-07-26T12:44:03;6.40;;;2.17;;
13795;SDS011;40911;51.552;9.874;2022-07-26T12:46:26;7.18;;;2.20;;
13795;SDS011;40911;51.552;9.874;2022-07-26T12:48:47;9.40;;;2.40;;
13795;SDS011;40911;51.552;9.874;2022-07-26T12:51:09;5.32;;;2.00;;
13795;SDS011;40911;51.552;9.874;2022-07-26T12:53:34;3.00;;;2.00;;
13795;SDS011;40911;51.552;9.874;2022-07-26T12:55:56;3.72;;;1.67;;
13795;SDS011;40911;51.552;9.874;2022-07-26T12:58:18;2.53;;;1.52;;
13795;SDS011;40911;51.552;9.874;2022-07-26T13:00:41;4.70;;;1.48;;
13795;SDS011;40911;51.552;9.874;2022-07-26T13:03:02;4.43;;;1.70;;
13795;SDS011;40911;51.552;9.874;2022-07-26T13:05:24;2.05;;;1.50;;
13795;SDS011;40911;51.552;9.874;2022-07-26T13:07:46;2.90;;;1.50;;
13795;SDS011;40911;51.552;9.874;2022-07-26T13:10:08;1.95;;;1.23;;
13795;SDS011;40911;51.552;9.874;2022-07-26T13:12:31;2.92;;;1.20;;
13795;SDS011;40911;51.552;9.874;2022-07-26T13:14:53;2.10;;;1.10;;
13795;SDS011;40911;51.552;9.874;2022-07-26T13:17:16;1.27;;;1.00;;
13795;SDS011;40911;51.552;9.874;2022-07-26T13:19:37;3.28;;;1.10;;
13795;SDS011;40911;51.552;9.874;2022-07-26T13:22:00;1.08;;;0.98;;
13795;SDS011;40911;51.552;9.874;2022-07-26T13:24:22;1.10;;;0.70;;
13795;SDS011;40911;51.552;9.874;2022-07-26T13:26:44;0.95;;;0.73;;
13795;SDS011;40911;51.552;9.874;2022-07-26T13:29:05;3.50;;;0.75;;
13795;SDS011;40911;51.552;9.874;2022-07-26T13:31:27;2.47;;;0.80;;
13795;SDS011;40911;51.552;9.874;2022-07-26T13:33:50;0.73;;;0.73;;
13795;SDS011;40911;51.552;9.874;2022-07-26T13:36:12;0.98;;;0.63;;
13795;SDS011;40911;51.552;9.874;2022-07-26T13:38:33;1.25;;;0.50;;
13795;SDS011;40911;51.552;9.874;2022-07-26T13:40:55;1.58;;;0.57;;
13795;SDS011;40911;51.552;9.874;2022-07-26T13:43:17;0.52;;;0.52;;
13795;SDS011;40911;51.552;9.874;2022-07-26T13:45:38;1.42;;;0.50;;
13795;SDS011;40911;51.552;9.874;2022-07-26T13:48:00;0.40;;;0.40;;
13795;SDS011;40911;51.552;9.874;2022-07-26T13:50:23;2.05;;;0.63;;
13795;SDS011;40911;51.552;9.874;2022-07-26T13:52:45;0.52;;;0.50;;
13795;SDS011;40911;51.552;9.874;2022-07-26T13:55:06;1.17;;;0.63;;
13795;SDS011;40911;51.552;9.874;2022-07-26T13:57:28;1.70;;;0.70;;
13795;SDS011;40911;51.552;9.874;2022-07-26T13:59:50;2.35;;;0.75;;
13795;SDS011;40911;51.552;9.874;2022-07-26T14:02:12;1.88;;;0.60;;
13795;SDS011;40911;51.552;9.874;2022-07-26T14:04:34;1.75;;;0.50;;
13795;SDS011;40911;51.552;9.874;2022-07-26T14:06:57;0.55;;;0.55;;
13795;SDS011;40911;51.552;9.874;2022-07-26T14:09:19;1.27;;;0.70;;
13795;SDS011;40911;51.552;9.874;2022-07-26T14:11:41;1.60;;;0.82;;
13795;SDS011;40911;51.552;9.874;2022-07-26T14:14:03;0.73;;;0.60;;
13795;SDS011;40911;51.552;9.874;2022-07-26T14:16:25;0.93;;;0.75;;
13795;SDS011;40911;51.552;9.874;2022-07-26T14:18:47;4.45;;;0.73;;
13795;SDS011;40911;51.552;9.874;2022-07-26T14:21:13;2.15;;;0.70;;
13795;SDS011;40911;51.552;9.874;2022-07-26T14:23:37;1.02;;;0.50;;
13795;SDS011;40911;51.552;9.874;2022-07-26T14:25:59;1.13;;;0.73;;
13795;SDS011;40911;51.552;9.874;2022-07-26T14:28:20;2.78;;;0.70;;
13795;SDS011;40911;51.552;9.874;2022-07-26T14:30:42;1.73;;;0.70;;
13795;SDS011;40911;51.552;9.874;2022-07-26T14:33:04;0.88;;;0.80;;
13795;SDS011;40911;51.552;9.874;2022-07-26T14:35:26;0.80;;;0.60;;
13795;SDS011;40911;51.552;9.874;2022-07-26T14:37:48;4.10;;;0.80;;
13795;SDS011;40911;51.552;9.874;2022-07-26T14:40:11;1.83;;;0.60;;
13795;SDS011;40911;51.552;9.874;2022-07-26T14:42:34;0.73;;;0.52;;
13795;SDS011;40911;51.552;9.874;2022-07-26T14:44:55;0.55;;;0.50;;
13795;SDS011;40911;51.552;9.874;2022-07-26T14:47:17;1.55;;;0.70;;
13795;SDS011;40911;51.552;9.874;2022-07-26T14:49:39;0.47;;;0.45;;
13795;SDS011;40911;51.552;9.874;2022-07-26T14:52:00;0.82;;;0.52;;
13795;SDS011;40911;51.552;9.874;2022-07-26T14:54:23;0.80;;;0.65;;
13795;SDS011;40911;51.552;9.874;2022-07-26T14:56:46;2.85;;;0.60;;
13795;SDS011;40911;51.552;9.874;2022-07-26T14:59:08;2.15;;;1.40;;
13795;SDS011;40911;51.552;9.874;2022-07-26T15:01:29;1.25;;;1.10;;
13795;SDS011;40911;51.552;9.874;2022-07-26T15:03:51;2.88;;;1.10;;
13795;SDS011;40911;51.552;9.874;2022-07-26T15:06:13;2.67;;;1.60;;
13795;SDS011;40911;51.552;9.874;2022-07-26T15:08:34;1.80;;;1.20;;
13795;SDS011;40911;51.552;9.874;2022-07-26T15:10:56;3.88;;;2.20;;
13795;SDS011;40911;51.552;9.874;2022-07-26T15:13:19;2.58;;;1.20;;
13795;SDS011;40911;51.552;9.874;2022-07-26T15:15:41;2.15;;;1.00;;
13795;SDS011;40911;51.552;9.874;2022-07-26T15:18:03;2.38;;;1.27;;
13795;SDS011;40911;51.552;9.874;2022-07-26T15:20:25;2.05;;;1.10;;
13795;SDS011;40911;51.552;9.874;2022-07-26T15:22:47;1.73;;;0.95;;
13795;SDS011;40911;51.552;9.874;2022-07-26T15:25:08;2.33;;;1.20;;
13795;SDS011;40911;51.552;9.874;2022-07-26T15:27:30;1.67;;;1.00;;
13795;SDS011;40911;51.552;9.874;2022-07-26T15:29:53;1.58;;;1.08;;
13795;SDS011;40911;51.552;9.874;2022-07-26T15:32:15;4.18;;;1.50;;
13795;SDS011;40911;51.552;9.874;2022-07-26T15:34:37;1.98;;;1.00;;
13795;SDS011;40911;51.552;9.874;2022-07-26T15:36:58;1.83;;;1.30;;
13795;SDS011;40911;51.552;9.874;2022-07-26T15:39:21;1.52;;;1.10;;
13795;SDS011;40911;51.552;9.874;2022-07-26T15:41:42;1.70;;;1.40;;
13795;SDS011;40911;51.552;9.874;2022-07-26T15:44:04;2.28;;;1.67;;
13795;SDS011;40911;51.552;9.874;2022-07-26T15:46:27;2.25;;;1.45;;
13795;SDS011;40911;51.552;9.874;2022-07-26T15:48:49;1.60;;;1.50;;
13795;SDS011;40911;51.552;9.874;2022-07-26T15:51:11;1.80;;;1.50;;
13795;SDS011;40911;51.552;9.874;2022-07-26T15:53:34;2.38;;;1.85;;
13795;SDS011;40911;51.552;9.874;2022-07-26T15:55:58;1.92;;;1.65;;
13795;SDS011;40911;51.552;9.874;2022-07-26T15:58:20;1.52;;;1.10;;
13795;SDS011;40911;51.552;9.874;2022-07-26T16:00:41;3.30;;;1.00;;
13795;SDS011;40911;51.552;9.874;2022-07-26T16:03:04;6.03;;;0.80;;
13795;SDS011;40911;51.552;9.874;2022-07-26T16:05:26;1.75;;;1.20;;
13795;SDS011;40911;51.552;9.874;2022-07-26T16:07:50;2.67;;;0.90;;
13795;SDS011;40911;51.552;9.874;2022-07-26T16:10:12;1.00;;;0.90;;
13795;SDS011;40911;51.552;9.874;2022-07-26T16:12:35;1.30;;;0.73;;
13795;SDS011;40911;51.552;9.874;2022-07-26T16:14:56;1.20;;;0.80;;
13795;SDS011;40911;51.552;9.874;2022-07-26T16:17:18;1.58;;;0.82;;
13795;SDS011;40911;51.552;9.874;2022-07-26T16:19:41;2.38;;;0.88;;
13795;SDS011;40911;51.552;9.874;2022-07-26T16:22:03;1.58;;;0.80;;